Time;durP1;ratioP1;P1;durP2;ratioP2;P2;SDS_P1;SDS_P2;PMS_P1;PMS_P2;Temp;Humidity;BMP_temperature;BMP_pressure;BME280_temperature;BME280_humidity;BME280_pressure;Samples;Min_cycle;Max_cycle;Signal;HPM_P1;HPM_P2
2022/01/08 00:00:29;;;;;;;8.90;5.07;;;1.60;99.90;;;;;;5034391;28;20461;-67
2022/01/08 00:02:55;;;;;;;11.43;6.00;;;1.60;99.90;;;;;;5034556;28;20048;-67
2022/01/08 00:05:21;;;;;;;9.70;4.93;;;1.60;99.90;;;;;;5035412;28;20048;-66
2022/01/08 00:07:47;;;;;;;10.00;5.88;;;1.70;99.90;;;;;;5035148;28;20091;-66
2022/01/08 00:10:13;;;;;;;9.48;4.78;;;1.70;99.90;;;;;;5036304;28;20053;-67
2022/01/08 00:12:38;;;;;;;8.80;4.40;;;1.70;99.90;;;;;;5015245;28;20087;-68
2022/01/08 00:15:06;;;;;;;11.18;5.28;;;1.70;99.90;;;;;;5014942;28;20050;-67
2022/01/08 00:17:33;;;;;;;9.02;5.15;;;1.70;99.90;;;;;;5052147;28;20398;-65
2022/01/08 00:19:58;;;;;;;10.07;4.90;;;1.70;99.90;;;;;;5034844;28;20076;-66
2022/01/08 00:22:24;;;;;;;8.63;5.15;;;1.80;99.90;;;;;;5052395;28;20084;-65
2022/01/08 00:24:52;;;;;;;10.57;5.35;;;1.80;99.90;;;;;;5037136;28;20466;-66
2022/01/08 00:27:22;;;;;;;12.35;5.60;;;1.80;99.90;;;;;;5038447;28;20474;-66
2022/01/08 00:29:48;;;;;;;6.85;4.13;;;1.80;99.90;;;;;;5038627;28;20502;-66
2022/01/08 00:32:14;;;;;;;9.15;4.85;;;1.80;99.90;;;;;;5037740;28;20057;-66
2022/01/08 00:34:41;;;;;;;8.45;4.70;;;1.80;99.90;;;;;;5037309;28;20057;-66
2022/01/08 00:37:07;;;;;;;8.40;4.68;;;1.80;99.90;;;;;;5038971;28;20065;-65
2022/01/08 00:39:33;;;;;;;9.05;4.57;;;1.80;99.90;;;;;;5038508;28;20481;-66
2022/01/08 00:41:59;;;;;;;8.70;4.88;;;1.80;99.90;;;;;;5037971;28;20063;-67
2022/01/08 00:44:25;;;;;;;9.80;4.53;;;1.80;99.90;;;;;;5038226;28;20049;-66
2022/01/08 00:46:51;;;;;;;7.68;4.57;;;1.80;99.90;;;;;;5037339;28;20057;-65
2022/01/08 00:49:16;;;;;;;7.82;5.10;;;1.80;99.90;;;;;;5038695;28;20056;-65
2022/01/08 00:51:42;;;;;;;10.00;5.18;;;1.90;99.90;;;;;;5056221;28;20045;-66
2022/01/08 00:54:08;;;;;;;9.52;5.30;;;1.90;99.90;;;;;;5038339;28;20067;-66
2022/01/08 00:56:33;;;;;;;11.40;5.65;;;1.90;99.90;;;;;;5038355;28;20106;-66
2022/01/08 00:58:59;;;;;;;9.73;5.97;;;1.90;99.90;;;;;;5038013;28;20049;-65
2022/01/08 01:01:25;;;;;;;10.43;5.38;;;1.90;99.90;;;;;;5037710;28;20057;-68
2022/01/08 01:03:50;;;;;;;12.13;6.45;;;1.80;99.90;;;;;;5038086;28;20615;-65
2022/01/08 01:06:16;;;;;;;9.82;6.18;;;1.80;99.90;;;;;;5037867;28;20048;-65
2022/01/08 01:08:41;;;;;;;10.48;5.97;;;1.80;99.90;;;;;;5038029;28;20140;-66
2022/01/08 01:11:07;;;;;;;7.53;5.60;;;1.80;99.90;;;;;;5037807;28;20417;-66
2022/01/08 01:13:32;;;;;;;9.10;5.80;;;1.60;99.90;;;;;;5037552;28;20049;-68
2022/01/08 01:15:58;;;;;;;13.27;5.80;;;1.60;99.90;;;;;;5036855;28;20057;-66
2022/01/08 01:18:23;;;;;;;10.68;6.47;;;1.50;99.90;;;;;;5037786;28;20060;-66
2022/01/08 01:20:50;;;;;;;12.40;6.60;;;1.50;99.90;;;;;;5037561;28;20140;-66
2022/01/08 01:23:21;;;;;;;7.97;5.75;;;1.40;99.90;;;;;;5038166;28;20504;-66
2022/01/08 01:25:55;;;;;;;10.60;6.28;;;1.30;99.90;;;;;;5037773;28;20045;-66
2022/01/08 01:47:02;;;;;;;12.55;7.97;;;0.90;99.90;;;;;;5036500;28;20049;-65
2022/01/08 01:49:33;;;;;;;16.38;8.15;;;0.90;99.90;;;;;;5054703;28;20574;-64
2022/01/08 01:51:59;;;;;;;13.57;8.65;;;0.80;99.90;;;;;;5037473;28;20045;-66
2022/01/08 01:54:27;;;;;;;14.93;8.48;;;0.80;99.90;;;;;;5055552;28;20049;-66
2022/01/08 01:56:53;;;;;;;15.75;9.40;;;0.80;99.90;;;;;;5054574;28;20060;-66
2022/01/08 01:59:25;;;;;;;14.50;9.25;;;0.80;99.90;;;;;;5055248;28;20106;-66
2022/01/08 02:01:51;;;;;;;22.60;10.18;;;0.80;99.90;;;;;;5019451;28;20464;-65
2022/01/08 02:04:16;;;;;;;20.00;9.93;;;0.80;99.90;;;;;;5036990;28;20056;-66
2022/01/08 02:06:47;;;;;;;20.30;10.63;;;0.90;99.90;;;;;;5037202;28;20052;-65
2022/01/08 02:09:12;;;;;;;17.10;10.38;;;0.80;99.90;;;;;;5020297;28;20057;-65
2022/01/08 02:11:57;;;;;;;20.13;9.95;;;0.90;99.90;;;;;;5036502;28;20125;-65
2022/01/08 02:14:23;;;;;;;18.35;9.85;;;0.80;99.90;;;;;;5031979;28;20053;-64
2022/01/08 02:16:49;;;;;;;17.48;9.80;;;0.90;99.90;;;;;;5016464;28;20099;-66
2022/01/08 02:19:15;;;;;;;16.98;10.00;;;0.90;99.90;;;;;;5016989;28;20072;-66
2022/01/08 02:21:55;;;;;;;20.60;9.80;;;0.90;99.90;;;;;;5016640;28;20136;-67
2022/01/08 02:24:21;;;;;;;17.98;9.63;;;1.00;99.90;;;;;;5049818;28;20049;-66
2022/01/08 02:26:47;;;;;;;19.73;9.90;;;1.00;99.90;;;;;;5016720;28;20129;-66
2022/01/08 02:29:13;;;;;;;18.98;9.75;;;1.10;99.90;;;;;;5026367;28;20129;-64
2022/01/08 02:31:40;;;;;;;17.23;10.02;;;1.10;99.90;;;;;;5016559;28;20111;-67
2022/01/08 02:34:07;;;;;;;15.15;9.23;;;1.10;99.90;;;;;;5034612;28;20437;-65
2022/01/08 02:36:34;;;;;;;16.63;9.48;;;1.20;99.90;;;;;;5017523;28;20081;-66
2022/01/08 02:39:00;;;;;;;19.25;9.85;;;1.20;99.90;;;;;;5027826;28;20061;-64
2022/01/08 02:41:27;;;;;;;17.85;9.60;;;1.20;99.90;;;;;;5033194;28;20067;-66
2022/01/08 02:43:53;;;;;;;17.42;9.00;;;1.20;99.90;;;;;;5016958;28;20379;-66
2022/01/08 02:46:22;;;;;;;13.95;8.30;;;1.20;99.90;;;;;;5035742;28;20132;-65
2022/01/08 02:48:48;;;;;;;19.92;9.02;;;1.10;99.90;;;;;;5053625;28;20491;-65
2022/01/08 02:51:14;;;;;;;16.80;8.45;;;1.10;99.90;;;;;;5034218;28;20061;-66
2022/01/08 02:53:39;;;;;;;12.55;8.63;;;1.00;99.90;;;;;;5054239;28;20048;-66
2022/01/08 02:56:05;;;;;;;18.95;9.07;;;1.00;99.90;;;;;;5035538;28;20053;-66
2022/01/08 02:58:31;;;;;;;21.23;8.52;;;0.90;99.90;;;;;;5036687;28;20193;-66
2022/01/08 03:00:58;;;;;;;14.93;8.40;;;0.90;99.90;;;;;;5029232;28;20053;-65
2022/01/08 03:03:24;;;;;;;17.40;8.68;;;0.90;99.90;;;;;;5028443;28;20053;-67
2022/01/08 03:05:49;;;;;;;19.35;8.80;;;0.90;99.90;;;;;;5035806;28;20507;-64
2022/01/08 03:08:15;;;;;;;16.02;8.95;;;0.80;99.90;;;;;;5035295;28;20056;-64
2022/01/08 03:10:41;;;;;;;15.60;8.43;;;0.80;99.90;;;;;;5015908;28;20128;-64
2022/01/08 03:13:07;;;;;;;15.88;7.93;;;0.80;99.90;;;;;;5016757;28;20048;-65
2022/01/08 03:15:36;;;;;;;15.32;8.00;;;0.70;99.90;;;;;;5016855;28;20041;-65
2022/01/08 03:18:03;;;;;;;17.55;8.40;;;0.70;99.90;;;;;;5015445;28;20501;-66
2022/01/08 03:20:29;;;;;;;18.38;8.82;;;0.70;99.90;;;;;;5033000;28;20131;-65
2022/01/08 03:23:01;;;;;;;20.15;8.20;;;0.60;99.90;;;;;;5036061;28;20059;-67
2022/01/08 03:25:27;;;;;;;17.52;7.95;;;0.60;99.90;;;;;;5053952;28;20194;-69
2022/01/08 03:27:53;;;;;;;12.85;7.60;;;0.60;99.90;;;;;;5035459;28;20129;-65
2022/01/08 03:30:19;;;;;;;14.18;7.50;;;0.60;99.90;;;;;;5035651;28;20107;-66
2022/01/08 03:32:45;;;;;;;15.02;7.90;;;0.60;99.90;;;;;;5034663;28;20087;-66
2022/01/08 03:35:11;;;;;;;17.08;7.35;;;0.50;99.90;;;;;;5034906;28;20060;-65
2022/01/08 03:37:36;;;;;;;17.42;7.97;;;0.50;99.90;;;;;;5033557;28;20052;-65
2022/01/08 03:40:05;;;;;;;15.10;8.77;;;0.50;99.90;;;;;;5015290;28;20049;-67
2022/01/08 03:42:30;;;;;;;16.48;8.25;;;0.50;99.90;;;;;;5015164;28;20096;-67
2022/01/08 03:44:56;;;;;;;15.00;8.77;;;0.50;99.90;;;;;;5031138;28;20524;-64
2022/01/08 03:47:52;;;;;;;23.30;12.23;;;0.60;99.90;;;;;;5014964;28;20137;-65
2022/01/08 03:50:07;;;;;;;20.98;11.05;;;0.60;99.90;;;;;;5014777;28;20057;-65
2022/01/08 03:52:33;;;;;;;20.65;10.48;;;0.70;99.90;;;;;;5032671;28;20128;-66
2022/01/08 03:54:59;;;;;;;17.48;7.85;;;0.60;99.90;;;;;;5034962;28;20124;-65
2022/01/08 03:57:24;;;;;;;21.55;8.57;;;0.60;99.90;;;;;;5050650;28;20132;-66
2022/01/08 03:59:50;;;;;;;19.75;10.02;;;0.60;99.90;;;;;;5033932;28;20076;-66
2022/01/08 04:02:16;;;;;;;19.33;8.48;;;0.60;99.90;;;;;;5034159;28;20053;-65
2022/01/08 04:04:41;;;;;;;19.88;8.35;;;0.70;99.90;;;;;;5052465;28;20076;-66
2022/01/08 04:07:07;;;;;;;16.13;8.10;;;0.70;99.90;;;;;;5032599;28;20045;-67
2022/01/08 04:09:33;;;;;;;19.77;8.18;;;0.70;99.90;;;;;;5053450;28;20056;-67
2022/01/08 04:11:59;;;;;;;18.13;8.25;;;0.70;99.90;;;;;;5034788;28;20060;-65
2022/01/08 04:14:30;;;;;;;14.30;7.95;;;0.70;99.90;;;;;;5052597;28;20072;-66
2022/01/08 04:16:56;;;;;;;17.20;8.68;;;0.70;99.90;;;;;;5033502;28;20049;-65
2022/01/08 04:19:22;;;;;;;18.60;8.50;;;0.70;99.90;;;;;;5034542;28;20052;-64
2022/01/08 04:21:59;;;;;;;19.10;8.38;;;0.70;99.90;;;;;;5033768;28;20052;-66
2022/01/08 04:24:27;;;;;;;19.73;8.40;;;0.80;99.90;;;;;;5035021;28;20049;-65
2022/01/08 04:26:52;;;;;;;18.20;8.48;;;0.90;99.90;;;;;;5015786;28;20049;-64
2022/01/08 04:29:18;;;;;;;18.92;8.10;;;0.90;99.90;;;;;;5015285;28;20112;-64
2022/01/08 04:31:43;;;;;;;18.60;8.45;;;0.80;99.90;;;;;;5015950;28;20125;-65
2022/01/08 04:34:09;;;;;;;16.27;8.10;;;0.90;99.90;;;;;;5034753;28;20485;-65
2022/01/08 04:36:34;;;;;;;16.77;8.40;;;0.90;99.90;;;;;;5033189;28;20045;-66
2022/01/08 04:39:00;;;;;;;15.18;8.32;;;0.90;99.90;;;;;;5034659;28;20131;-65
2022/01/08 04:41:26;;;;;;;16.65;8.43;;;0.90;99.90;;;;;;5025616;28;20394;-66
2022/01/08 04:43:51;;;;;;;14.18;8.02;;;0.80;99.90;;;;;;5014562;28;20057;-66
2022/01/08 04:46:17;;;;;;;16.00;7.70;;;0.80;99.90;;;;;;5014195;28;20054;-65
2022/01/08 04:48:43;;;;;;;14.48;7.53;;;0.70;99.90;;;;;;5014595;28;20398;-67
2022/01/08 04:51:11;;;;;;;16.55;7.70;;;0.70;99.90;;;;;;5020788;28;20040;-65
2022/01/08 04:53:36;;;;;;;17.80;8.05;;;0.70;99.90;;;;;;5033965;28;20049;-65
2022/01/08 04:56:02;;;;;;;16.25;8.05;;;0.60;99.90;;;;;;5026753;28;20149;-66
2022/01/08 04:58:28;;;;;;;20.15;7.45;;;0.60;99.90;;;;;;5014738;28;20109;-65
2022/01/08 05:00:54;;;;;;;17.83;8.07;;;0.60;99.90;;;;;;5031222;28;20490;-65
2022/01/08 05:03:20;;;;;;;16.00;8.35;;;0.60;99.90;;;;;;5014809;28;20106;-64
2022/01/08 05:05:46;;;;;;;13.52;7.55;;;0.60;99.90;;;;;;5014120;28;20057;-66
2022/01/08 05:08:12;;;;;;;17.00;8.35;;;0.60;99.90;;;;;;5015237;28;20057;-65
2022/01/08 05:10:37;;;;;;;15.15;7.68;;;0.60;99.90;;;;;;5032690;28;20049;-65
2022/01/08 05:13:05;;;;;;;18.95;7.93;;;0.50;99.90;;;;;;5034279;28;20060;-66
2022/01/08 05:15:35;;;;;;;14.68;7.13;;;0.50;99.90;;;;;;5034388;28;20054;-65
2022/01/08 05:18:02;;;;;;;19.67;7.82;;;0.50;99.90;;;;;;5030330;28;20127;-68
2022/01/08 05:20:32;;;;;;;15.95;6.63;;;0.50;99.90;;;;;;5018006;28;20057;-65
2022/01/08 05:23:00;;;;;;;15.73;6.38;;;0.40;99.90;;;;;;5035051;28;20053;-68
2022/01/08 05:25:28;;;;;;;12.55;6.65;;;0.40;99.90;;;;;;5033360;28;20449;-66
2022/01/08 05:27:53;;;;;;;15.25;6.43;;;0.30;99.90;;;;;;5037538;28;20053;-68
2022/01/08 05:30:21;;;;;;;17.13;7.35;;;0.20;99.90;;;;;;5055254;28;20055;-64
2022/01/08 05:32:47;;;;;;;9.48;6.15;;;0.20;99.90;;;;;;5037031;28;20148;-67
2022/01/08 05:35:13;;;;;;;13.50;6.03;;;0.20;99.90;;;;;;5037435;28;20157;-67
2022/01/08 05:37:39;;;;;;;17.35;6.40;;;0.20;99.90;;;;;;5037375;28;20057;-67
2022/01/08 05:40:05;;;;;;;14.68;6.45;;;0.10;99.90;;;;;;5036446;28;20053;-65
2022/01/08 05:42:31;;;;;;;13.80;6.57;;;0.20;99.90;;;;;;5036346;28;20067;-68
2022/01/08 05:44:56;;;;;;;15.52;6.65;;;0.20;99.90;;;;;;5036979;28;20120;-64
2022/01/08 05:47:23;;;;;;;10.18;6.03;;;0.20;99.90;;;;;;5036899;28;20048;-64
2022/01/08 05:49:48;;;;;;;14.32;5.57;;;0.20;99.90;;;;;;5020665;28;20060;-65
2022/01/08 05:52:14;;;;;;;15.27;6.25;;;0.20;99.90;;;;;;5055337;28;20052;-65
2022/01/08 05:54:40;;;;;;;16.13;6.10;;;0.10;99.90;;;;;;5044717;28;20350;-64
2022/01/08 05:57:06;;;;;;;12.48;6.30;;;0.10;99.90;;;;;;5035652;28;20053;-67
2022/01/08 05:59:32;;;;;;;13.85;5.97;;;0.10;99.90;;;;;;5036847;28;20529;-65
2022/01/08 06:01:58;;;;;;;12.43;5.80;;;0.00;99.90;;;;;;5035968;28;20141;-65
2022/01/08 06:04:24;;;;;;;15.13;6.10;;;0.00;99.90;;;;;;5037387;28;20190;-66
2022/01/08 06:06:50;;;;;;;16.10;6.43;;;0.00;99.90;;;;;;5054865;28;20053;-64
2022/01/08 06:09:15;;;;;;;14.45;6.10;;;0.10;99.90;;;;;;5036643;28;20060;-66
2022/01/08 06:11:41;;;;;;;11.27;5.85;;;0.10;99.90;;;;;;5017904;28;20084;-66
2022/01/08 06:14:07;;;;;;;19.00;6.10;;;0.10;99.90;;;;;;5016667;28;20346;-66
2022/01/08 06:16:35;;;;;;;12.77;5.65;;;0.10;99.90;;;;;;5016299;28;20148;-66
2022/01/08 06:19:05;;;;;;;12.90;5.65;;;0.10;99.90;;;;;;5016843;28;20054;-66
2022/01/08 06:21:31;;;;;;;11.45;6.00;;;0.10;99.90;;;;;;5015731;28;20049;-65
2022/01/08 06:23:57;;;;;;;13.93;5.93;;;0.20;99.90;;;;;;5016397;28;20045;-65
2022/01/08 06:26:23;;;;;;;13.15;6.25;;;0.10;99.90;;;;;;5019832;28;20137;-66
2022/01/08 06:28:51;;;;;;;16.45;6.07;;;0.20;99.90;;;;;;5016714;28;20092;-65
2022/01/08 06:31:20;;;;;;;13.88;6.03;;;0.20;99.90;;;;;;5015810;28;20442;-65
2022/01/08 06:33:46;;;;;;;14.52;6.00;;;0.10;99.90;;;;;;5032778;28;20053;-65
2022/01/08 06:36:13;;;;;;;15.25;6.13;;;0.20;99.90;;;;;;5019946;28;20528;-65
2022/01/08 06:38:39;;;;;;;13.27;5.32;;;0.10;99.90;;;;;;5036404;28;20049;-66
2022/01/08 06:41:05;;;;;;;13.35;5.55;;;0.10;99.90;;;;;;5035240;28;20053;-65
2022/01/08 06:43:31;;;;;;;15.20;5.25;;;0.10;99.90;;;;;;5054223;28;20535;-64
2022/01/08 06:45:56;;;;;;;11.52;5.85;;;0.10;99.90;;;;;;5033773;28;20049;-66
2022/01/08 06:48:22;;;;;;;14.38;6.15;;;0.00;99.90;;;;;;5035668;28;20136;-68
2022/01/08 06:50:47;;;;;;;13.07;5.47;;;0.00;99.90;;;;;;5036268;28;20449;-65
2022/01/08 06:53:13;;;;;;;16.30;6.20;;;0.00;99.90;;;;;;5019535;28;20105;-68
2022/01/08 06:55:39;;;;;;;11.75;6.03;;;0.00;99.90;;;;;;5052916;28;20052;-66
2022/01/08 06:58:04;;;;;;;13.95;6.40;;;0.00;99.90;;;;;;5021462;28;20477;-65
2022/01/08 07:00:30;;;;;;;11.98;5.97;;;0.00;99.90;;;;;;5031064;28;20045;-66
2022/01/08 07:02:55;;;;;;;16.73;6.47;;;0.00;99.90;;;;;;5030189;28;20057;-66
2022/01/08 07:05:21;;;;;;;17.95;6.55;;;-0.10;99.90;;;;;;5035246;28;20132;-66
2022/01/08 07:07:47;;;;;;;13.88;6.47;;;0.00;99.90;;;;;;5019453;28;20544;-64
2022/01/08 07:10:15;;;;;;;18.95;6.35;;;0.00;99.90;;;;;;5017173;28;20053;-67
2022/01/08 07:12:40;;;;;;;12.98;5.88;;;0.00;99.90;;;;;;5046944;28;20074;-66
2022/01/08 07:15:07;;;;;;;14.55;6.90;;;-0.10;99.90;;;;;;5007476;28;20048;-66
2022/01/08 07:17:33;;;;;;;15.95;6.20;;;-0.10;99.90;;;;;;5013852;28;20129;-65
2022/01/08 07:19:58;;;;;;;10.20;5.90;;;-0.10;99.90;;;;;;5045946;28;20120;-64
2022/01/08 07:22:24;;;;;;;16.80;5.85;;;-0.10;99.90;;;;;;5027448;28;20093;-65
2022/01/08 07:24:49;;;;;;;10.32;5.47;;;-0.10;99.90;;;;;;5015518;28;20053;-65
2022/01/08 07:27:15;;;;;;;19.25;7.90;;;-0.20;99.90;;;;;;5015451;28;20168;-65
2022/01/08 07:29:40;;;;;;;15.35;7.78;;;-0.20;99.90;;;;;;5028070;28;20053;-64
2022/01/08 07:32:06;;;;;;;17.60;7.47;;;-0.10;99.90;;;;;;5029607;28;20064;-66
2022/01/08 07:34:33;;;;;;;23.67;11.35;;;-0.10;99.90;;;;;;5030930;28;20106;-64
2022/01/08 07:36:58;;;;;;;28.67;12.35;;;-0.10;99.90;;;;;;5021876;28;20060;-66
2022/01/08 07:39:24;;;;;;;29.90;14.88;;;-0.10;99.90;;;;;;5034798;28;20049;-66
2022/01/08 07:41:50;;;;;;;24.58;10.65;;;-0.10;99.90;;;;;;5035015;28;20057;-66
2022/01/08 07:44:15;;;;;;;28.67;12.63;;;-0.10;99.90;;;;;;5024078;28;20111;-67
2022/01/08 07:46:41;;;;;;;25.83;10.60;;;-0.10;99.90;;;;;;5014501;28;20049;-68
2022/01/08 07:49:09;;;;;;;19.83;8.57;;;0.00;99.90;;;;;;5018696;28;20049;-66
2022/01/08 07:51:34;;;;;;;19.17;8.13;;;0.10;99.90;;;;;;5034828;28;20084;-66
2022/01/08 07:54:00;;;;;;;21.48;8.18;;;0.20;99.90;;;;;;5031749;28;20149;-66
2022/01/08 07:56:26;;;;;;;30.85;10.45;;;0.20;99.90;;;;;;5033416;28;20494;-70
2022/01/08 07:58:51;;;;;;;28.08;10.95;;;0.20;99.90;;;;;;5027589;28;20445;-66
2022/01/08 08:01:17;;;;;;;35.90;12.60;;;0.30;99.90;;;;;;5031622;28;20053;-65
2022/01/08 08:03:42;;;;;;;47.00;18.52;;;0.20;99.90;;;;;;5001596;28;20128;-67
2022/01/08 08:06:11;;;;;;;33.90;14.05;;;0.20;99.90;;;;;;5022815;28;20046;-65
2022/01/08 08:08:37;;;;;;;48.78;17.65;;;0.30;99.90;;;;;;5031000;28;20061;-67
2022/01/08 08:11:05;;;;;;;30.48;12.60;;;0.20;99.90;;;;;;5051111;28;20189;-67
2022/01/08 08:13:31;;;;;;;40.40;19.00;;;0.30;99.90;;;;;;5035329;28;20497;-66
2022/01/08 08:15:57;;;;;;;28.88;11.85;;;0.30;99.90;;;;;;5031406;28;20142;-66
2022/01/08 08:18:22;;;;;;;32.55;14.30;;;0.30;99.90;;;;;;5032684;28;20132;-67
2022/01/08 08:20:48;;;;;;;21.58;10.38;;;0.30;99.90;;;;;;5047848;28;20393;-65
2022/01/08 08:23:13;;;;;;;33.97;17.20;;;0.30;99.90;;;;;;5017655;28;20171;-67
2022/01/08 08:25:39;;;;;;;23.13;12.50;;;0.40;99.90;;;;;;5024630;28;20534;-64
2022/01/08 08:28:06;;;;;;;20.73;9.60;;;0.40;99.90;;;;;;5014673;28;20061;-69
2022/01/08 08:30:33;;;;;;;19.20;11.07;;;0.40;99.90;;;;;;4998276;28;20049;-66
2022/01/08 08:32:59;;;;;;;18.00;9.40;;;0.40;99.90;;;;;;5013956;28;20050;-66
2022/01/08 08:35:25;;;;;;;19.92;9.27;;;0.50;99.90;;;;;;5022716;28;20132;-67
2022/01/08 08:37:51;;;;;;;12.85;6.88;;;0.40;99.90;;;;;;5034099;28;20147;-66
2022/01/08 08:40:16;;;;;;;15.50;8.10;;;0.50;99.90;;;;;;5034273;28;20450;-66
2022/01/08 08:42:42;;;;;;;15.18;7.10;;;0.50;99.90;;;;;;5033694;28;20120;-67
2022/01/08 08:45:09;;;;;;;13.30;6.55;;;0.50;99.90;;;;;;5036238;28;20460;-65
2022/01/08 08:47:35;;;;;;;13.85;6.60;;;0.50;99.90;;;;;;5037772;28;20092;-66
2022/01/08 08:50:02;;;;;;;14.23;6.38;;;0.50;99.90;;;;;;5037869;28;20096;-65
2022/01/08 08:52:28;;;;;;;12.57;5.72;;;0.60;99.90;;;;;;5037412;28;20057;-66
2022/01/08 08:54:54;;;;;;;15.25;6.55;;;0.60;99.90;;;;;;5038291;28;20508;-66
2022/01/08 08:57:19;;;;;;;15.00;6.22;;;0.70;99.90;;;;;;5037254;28;20052;-66
2022/01/08 08:59:45;;;;;;;18.83;6.35;;;0.70;99.90;;;;;;5037987;28;20045;-65
2022/01/08 09:02:11;;;;;;;14.32;6.30;;;0.70;99.90;;;;;;5020788;28;20049;-66
2022/01/08 09:04:40;;;;;;;15.23;6.10;;;0.80;99.90;;;;;;5037954;28;20199;-65
2022/01/08 09:07:06;;;;;;;11.93;6.30;;;0.90;99.90;;;;;;5038107;28;20373;-65
2022/01/08 09:09:32;;;;;;;15.93;6.28;;;0.80;99.90;;;;;;5038224;28;20049;-66
2022/01/08 09:11:58;;;;;;;10.93;6.20;;;0.90;99.90;;;;;;5037350;28;20053;-66
2022/01/08 09:14:23;;;;;;;17.13;6.78;;;1.00;99.90;;;;;;5037798;28;20059;-65
2022/01/08 09:16:53;;;;;;;15.90;7.00;;;1.00;99.90;;;;;;5054538;28;20080;-66
2022/01/08 09:19:20;;;;;;;16.10;6.20;;;1.00;99.90;;;;;;5037352;28;20044;-65
2022/01/08 09:21:47;;;;;;;16.20;6.40;;;1.10;99.90;;;;;;5037443;28;20137;-67
2022/01/08 09:24:13;;;;;;;15.02;6.55;;;1.40;99.90;;;;;;5038118;28;20151;-68
2022/01/08 09:26:39;;;;;;;14.43;6.35;;;1.20;99.90;;;;;;5037694;28;20049;-66
2022/01/08 09:29:05;;;;;;;10.02;6.70;;;1.20;99.90;;;;;;5054521;28;20057;-66
2022/01/08 09:31:32;;;;;;;13.75;7.05;;;1.30;99.90;;;;;;5036574;28;20091;-65
2022/01/08 09:33:58;;;;;;;19.08;6.43;;;1.30;99.90;;;;;;5037027;28;20057;-66
2022/01/08 09:36:23;;;;;;;11.27;6.40;;;1.30;99.90;;;;;;5036013;28;20972;-66
2022/01/08 09:38:49;;;;;;;17.05;7.28;;;1.30;99.90;;;;;;5037465;28;20055;-66
2022/01/08 09:41:16;;;;;;;14.30;7.45;;;1.40;99.90;;;;;;5053900;28;20056;-66
2022/01/08 09:43:41;;;;;;;18.65;9.23;;;1.40;99.90;;;;;;5032055;28;20048;-67
2022/01/08 09:46:07;;;;;;;18.45;9.65;;;1.40;99.90;;;;;;5033957;28;20049;-66
2022/01/08 09:48:32;;;;;;;16.55;9.20;;;1.50;99.90;;;;;;5037092;28;20042;-65
2022/01/08 09:50:58;;;;;;;13.65;9.10;;;1.50;99.90;;;;;;5019556;28;20068;-66
2022/01/08 09:53:24;;;;;;;19.13;9.65;;;1.60;99.90;;;;;;5043520;28;20128;-65
2022/01/08 09:55:49;;;;;;;18.00;8.95;;;1.60;99.90;;;;;;5016789;28;20120;-65
2022/01/08 09:58:15;;;;;;;16.42;9.52;;;1.60;99.90;;;;;;5017069;28;20057;-66
2022/01/08 10:00:47;;;;;;;16.40;8.95;;;1.70;99.90;;;;;;5025618;28;20045;-67
2022/01/08 10:03:22;;;;;;;12.93;8.32;;;1.80;99.90;;;;;;5037267;28;20053;-65
2022/01/08 10:05:58;;;;;;;17.45;8.45;;;1.80;99.90;;;;;;5020036;28;20048;-67
2022/01/08 10:08:32;;;;;;;15.70;9.00;;;1.80;99.90;;;;;;5019028;28;20057;-65
2022/01/08 10:11:00;;;;;;;13.75;9.05;;;1.90;99.90;;;;;;5037610;28;20373;-66
2022/01/08 10:13:33;;;;;;;13.27;9.43;;;1.90;99.90;;;;;;5036283;28;20049;-66
2022/01/08 10:18:45;;;;;;;15.52;9.60;;;2.00;99.90;;;;;;5030810;28;19971;-66
2022/01/08 10:21:17;;;;;;;15.82;9.50;;;2.10;99.90;;;;;;5030502;28;20044;-67
2022/01/08 10:23:55;;;;;;;16.10;9.82;;;2.20;99.90;;;;;;5032078;28;20053;-68
2022/01/08 10:26:24;;;;;;;14.93;9.57;;;2.20;99.90;;;;;;5032654;28;20478;-67
2022/01/08 10:28:53;;;;;;;14.25;9.60;;;2.30;99.90;;;;;;5016402;28;20053;-67
2022/01/08 10:31:30;;;;;;;18.67;9.95;;;2.30;99.90;;;;;;5015972;28;20045;-67
2022/01/08 10:34:02;;;;;;;19.13;10.52;;;2.40;99.90;;;;;;5020574;28;20053;-68
2022/01/08 10:36:33;;;;;;;14.15;9.98;;;2.40;99.90;;;;;;5036441;28;20052;-65
2022/01/08 10:39:05;;;;;;;18.50;10.52;;;2.40;99.90;;;;;;5052852;28;20059;-65
2022/01/08 10:41:32;;;;;;;16.05;9.52;;;;;;;;;;5036109;28;20498;-67
2022/01/08 10:44:06;;;;;;;12.60;8.52;;;2.50;99.90;;;;;;5036471;28;20051;-68
2022/01/08 10:46:32;;;;;;;14.27;9.10;;;2.40;99.90;;;;;;5052927;28;20076;-67
2022/01/08 10:48:58;;;;;;;17.08;9.93;;;2.50;99.90;;;;;;5033581;28;20055;-68
2022/01/08 10:51:26;;;;;;;14.85;9.48;;;2.60;99.90;;;;;;5035656;28;20452;-66
2022/01/08 10:53:58;;;;;;;17.08;9.82;;;2.60;99.90;;;;;;5036013;28;20045;-68
2022/01/08 10:56:31;;;;;;;12.82;9.48;;;2.60;99.90;;;;;;5030674;28;20083;-66
2022/01/08 10:58:59;;;;;;;21.45;11.55;;;2.80;99.90;;;;;;5035978;28;20095;-66
2022/01/08 11:01:36;;;;;;;14.60;10.35;;;2.80;99.90;;;;;;5034914;28;20501;-66
2022/01/08 11:04:01;;;;;;;18.02;10.32;;;2.80;99.90;;;;;;5035587;28;20128;-65
2022/01/08 11:06:27;;;;;;;15.98;9.70;;;2.90;99.90;;;;;;5035910;28;20103;-66
2022/01/08 11:09:02;;;;;;;16.95;10.38;;;2.90;99.90;;;;;;5035165;28;20391;-65
2022/01/08 11:11:30;;;;;;;19.23;11.00;;;3.00;99.90;;;;;;5035839;28;20049;-66
2022/01/08 11:14:08;;;;;;;16.85;8.88;;;3.00;99.90;;;;;;5035393;28;20110;-66
2022/01/08 11:16:35;;;;;;;16.88;9.80;;;3.20;99.90;;;;;;5034816;28;20049;-66
2022/01/08 11:19:03;;;;;;;11.55;8.45;;;3.30;99.90;;;;;;5032014;28;20049;-66
2022/01/08 11:21:31;;;;;;;21.10;10.52;;;3.20;99.90;;;;;;5034690;28;20140;-67
2022/01/08 11:24:01;;;;;;;14.40;9.25;;;3.20;99.90;;;;;;5033683;28;20045;-65
2022/01/08 11:26:28;;;;;;;15.10;9.38;;;4.50;99.90;;;;;;5034193;28;20055;-67
2022/01/08 11:28:58;;;;;;;13.52;8.50;;;3.30;99.90;;;;;;5044667;28;20072;-66
2022/01/08 11:31:28;;;;;;;15.95;9.45;;;3.30;99.90;;;;;;5048690;28;20041;-66
2022/01/08 11:33:57;;;;;;;15.18;9.32;;;2.60;99.90;;;;;;5053210;28;20056;-66
2022/01/08 11:36:23;;;;;;;15.32;9.70;;;3.20;99.90;;;;;;5036472;28;20508;-65
2022/01/08 11:38:49;;;;;;;17.80;9.80;;;3.20;99.90;;;;;;5050602;28;20122;-68
2022/01/08 11:41:16;;;;;;;12.50;9.75;;;3.00;99.90;;;;;;5019555;28;20132;-67
2022/01/08 11:43:43;;;;;;;19.20;10.63;;;3.40;99.90;;;;;;5034303;28;20041;-66
2022/01/08 11:46:13;;;;;;;22.13;10.93;;;3.40;99.90;;;;;;5031047;28;20045;-67
2022/01/08 11:48:45;;;;;;;17.48;11.45;;;3.50;99.90;;;;;;5031964;28;20077;-66
2022/01/08 11:51:23;;;;;;;15.30;10.43;;;3.50;99.90;;;;;;5045269;28;20055;-67
2022/01/08 11:54:02;;;;;;;16.75;9.90;;;4.00;99.90;;;;;;5035871;28;20361;-66
2022/01/08 11:56:32;;;;;;;17.38;10.82;;;3.60;99.90;;;;;;5034641;28;20056;-66
2022/01/08 11:59:10;;;;;;;14.98;10.85;;;3.60;99.90;;;;;;5030175;28;20046;-67
2022/01/08 12:01:38;;;;;;;18.85;11.80;;;3.80;99.90;;;;;;5034308;28;20064;-66
2022/01/08 12:04:05;;;;;;;18.70;12.32;;;3.80;99.90;;;;;;5034854;28;20044;-68
2022/01/08 12:06:37;;;;;;;17.13;11.90;;;3.90;99.90;;;;;;5051661;28;20463;-66
2022/01/08 12:11:46;;;;;;;19.00;13.65;;;3.90;99.90;;;;;;5014271;28;20061;-66
2022/01/08 12:14:21;;;;;;;19.00;13.82;;;3.70;99.90;;;;;;5032705;28;20125;-67
2022/01/08 12:16:51;;;;;;;21.27;14.95;;;3.90;99.90;;;;;;5014342;28;20115;-66
2022/01/08 12:19:31;;;;;;;19.25;14.38;;;3.90;99.90;;;;;;5037217;28;20072;-66
2022/01/08 12:21:58;;;;;;;18.80;15.60;;;3.90;99.90;;;;;;5033972;28;20053;-67
2022/01/08 12:24:27;;;;;;;22.00;15.25;;;4.20;99.90;;;;;;5028736;28;20072;-67
2022/01/08 12:26:57;;;;;;;17.92;14.90;;;3.80;99.90;;;;;;5021886;28;20057;-67
2022/01/08 12:29:40;;;;;;;20.35;14.45;;;3.70;99.90;;;;;;5034820;28;20088;-68
2022/01/08 12:32:37;;;;;;;18.75;14.88;;;3.80;99.90;;;;;;5033806;28;20083;-66
2022/01/08 12:35:14;;;;;;;21.23;14.55;;;3.80;99.90;;;;;;5031064;28;20084;-66
2022/01/08 12:37:43;;;;;;;19.20;15.10;;;3.70;99.90;;;;;;5021513;28;20053;-65
2022/01/08 12:40:11;;;;;;;19.58;15.57;;;3.70;99.90;;;;;;5034481;28;20053;-67
2022/01/08 12:42:44;;;;;;;21.42;16.13;;;3.90;99.90;;;;;;5033725;28;20122;-66
2022/01/08 12:45:13;;;;;;;22.77;16.75;;;3.20;99.90;;;;;;5033772;28;20504;-66
2022/01/08 12:47:56;;;;;;;24.80;15.90;;;3.60;99.90;;;;;;5033954;28;20396;-66
2022/01/08 12:50:29;;;;;;;24.08;17.48;;;3.60;99.90;;;;;;5033628;28;20045;-66
2022/01/08 12:53:07;;;;;;;24.83;17.90;;;3.60;99.90;;;;;;5032599;28;20053;-66
2022/01/08 12:55:41;;;;;;;25.83;20.38;;;3.60;99.90;;;;;;5034035;28;20052;-68
2022/01/08 12:58:16;;;;;;;26.13;18.20;;;3.60;99.90;;;;;;5032100;28;20111;-68
2022/01/08 13:01:19;;;;;;;23.08;17.05;;;3.60;99.90;;;;;;5029693;28;20409;-67
2022/01/08 13:03:49;;;;;;;24.25;17.63;;;3.60;99.90;;;;;;5004115;28;20049;-67
2022/01/08 13:06:15;;;;;;;25.70;17.30;;;5.30;99.90;;;;;;5017858;28;20049;-68
2022/01/08 13:08:46;;;;;;;24.83;18.35;;;3.70;99.90;;;;;;5051815;28;20064;-67
2022/01/08 13:11:15;;;;;;;27.17;19.15;;;3.70;99.90;;;;;;5034303;28;20072;-65